Time;durP1;ratioP1;P1;durP2;ratioP2;P2;SDS_P1;SDS_P2;PMS_P1;PMS_P2;Temp;Humidity;BMP_temperature;BMP_pressure;BME280_temperature;BME280_humidity;BME280_pressure;Samples;Min_cycle;Max_cycle;Signal;HPM_P1;HPM_P2
2022/06/21 00:01:00;;;;;;;9.97;8.10;;;14.70;84.40;;;;;;5035659;28;20471;-51
2022/06/21 00:03:29;;;;;;;9.37;8.40;;;14.70;84.20;;;;;;5035962;28;20491;-51
2022/06/21 00:05:56;;;;;;;9.80;8.43;;;14.60;84.60;;;;;;5037060;28;20491;-51
2022/06/21 00:08:25;;;;;;;9.10;8.20;;;14.60;85.00;;;;;;5034706;28;20495;-51
2022/06/21 00:10:53;;;;;;;11.50;10.47;;;14.70;84.90;;;;;;5035706;28;21059;-51
2022/06/21 00:13:23;;;;;;;11.83;7.47;;;14.70;84.60;;;;;;5036488;28;20996;-51
2022/06/21 00:15:53;;;;;;;9.27;8.40;;;14.70;84.00;;;;;;5035294;28;20985;-51
2022/06/21 00:18:23;;;;;;;8.17;7.37;;;14.70;83.70;;;;;;5035213;28;20491;-51
2022/06/21 00:20:50;;;;;;;9.23;8.30;;;14.60;83.50;;;;;;5034649;28;21008;-51
2022/06/21 00:23:19;;;;;;;8.30;7.50;;;14.50;83.60;;;;;;5035776;28;20507;-51
2022/06/21 00:25:47;;;;;;;9.63;8.67;;;14.30;84.40;;;;;;5035465;28;20483;-51
2022/06/21 00:28:14;;;;;;;11.53;8.47;;;14.30;84.70;;;;;;5034967;28;20991;-51
2022/06/21 00:30:40;;;;;;;11.40;10.40;;;14.30;85.70;;;;;;5035896;28;20482;-50
2022/06/21 00:33:12;;;;;;;12.83;8.23;;;14.30;85.60;;;;;;5038077;28;20476;-50
2022/06/21 00:35:41;;;;;;;12.93;11.73;;;14.30;85.90;;;;;;5033711;28;21008;-51
2022/06/21 00:38:12;;;;;;;8.20;7.50;;;14.30;85.40;;;;;;5037471;28;20483;-51
2022/06/21 00:40:39;;;;;;;9.70;8.40;;;14.20;84.80;;;;;;5036540;28;20478;-51
2022/06/21 00:43:10;;;;;;;7.93;6.60;;;14.00;84.20;;;;;;5038395;28;20474;-50
2022/06/21 00:45:41;;;;;;;10.53;7.97;;;13.90;84.60;;;;;;5017735;28;20514;-50
2022/06/21 00:48:15;;;;;;;10.90;7.53;;;13.80;85.00;;;;;;5010328;28;20480;-50
2022/06/21 00:50:45;;;;;;;9.40;8.50;;;13.80;85.70;;;;;;5021204;28;20547;-51
2022/06/21 00:53:17;;;;;;;9.73;7.30;;;13.70;85.80;;;;;;5014413;28;20874;-51
2022/06/21 00:55:48;;;;;;;10.20;9.23;;;13.70;85.70;;;;;;5023156;28;21020;-51
2022/06/21 00:58:17;;;;;;;8.47;7.77;;;13.80;86.80;;;;;;5039828;28;20574;-50
2022/06/21 01:00:55;;;;;;;10.90;9.80;;;13.70;86.90;;;;;;5038960;28;20487;-51
2022/06/21 01:03:26;;;;;;;9.63;8.73;;;13.70;87.20;;;;;;5036657;28;20479;-51
2022/06/21 01:05:55;;;;;;;16.13;10.00;;;13.70;87.30;;;;;;5038351;28;20475;-51
2022/06/21 01:08:26;;;;;;;10.00;8.83;;;13.80;87.30;;;;;;5033824;28;20491;-50
2022/06/21 01:10:58;;;;;;;8.73;7.73;;;13.80;87.30;;;;;;5018722;28;20675;-50
2022/06/21 01:13:28;;;;;;;9.57;8.00;;;13.80;87.50;;;;;;5017456;28;20484;-51
2022/06/21 01:15:56;;;;;;;12.97;7.80;;;13.80;87.40;;;;;;5018394;28;20931;-51
2022/06/21 01:18:26;;;;;;;14.73;9.73;;;13.90;87.60;;;;;;5002104;28;20485;-50
2022/06/21 01:20:57;;;;;;;9.77;8.90;;;13.80;87.50;;;;;;5017293;28;20909;-50
2022/06/21 01:23:37;;;;;;;10.50;8.73;;;13.80;87.50;;;;;;5019765;28;20985;-50
2022/06/21 01:26:19;;;;;;;10.80;9.23;;;13.80;87.50;;;;;;5028906;28;20475;-50
2022/06/21 01:28:48;;;;;;;10.97;9.60;;;13.80;87.50;;;;;;5038547;28;20494;-51
2022/06/21 01:31:16;;;;;;;8.73;7.83;;;13.70;87.30;;;;;;5039935;28;20493;-51
2022/06/21 01:33:43;;;;;;;10.80;9.80;;;13.70;87.80;;;;;;5037304;28;20992;-50
2022/06/21 01:36:14;;;;;;;8.60;7.70;;;13.70;87.40;;;;;;5026478;28;20488;-51
2022/06/21 01:38:46;;;;;;;12.90;10.27;;;13.60;87.30;;;;;;5020422;28;20477;-50
2022/06/21 01:41:17;;;;;;;11.00;8.40;;;13.60;87.20;;;;;;5035676;28;20965;-51
2022/06/21 01:43:49;;;;;;;10.13;9.13;;;13.60;88.00;;;;;;5021156;28;20487;-51
2022/06/21 01:46:20;;;;;;;9.90;8.70;;;13.50;87.90;;;;;;5038921;28;20480;-51
2022/06/21 01:48:50;;;;;;;10.73;9.73;;;13.50;87.60;;;;;;5036777;28;20845;-51
2022/06/21 01:51:26;;;;;;;9.10;8.10;;;13.50;87.80;;;;;;5040490;28;20582;-52
2022/06/21 01:53:55;;;;;;;11.97;9.57;;;13.50;88.10;;;;;;5040941;28;20490;-51
2022/06/21 01:56:25;;;;;;;12.20;9.23;;;13.50;87.90;;;;;;5039970;28;20494;-51
2022/06/21 01:58:57;;;;;;;10.70;8.77;;;13.50;87.90;;;;;;5038121;28;20540;-52
2022/06/21 02:01:28;;;;;;;17.03;8.13;;;13.50;88.10;;;;;;5038263;28;20513;-51
2022/06/21 02:03:57;;;;;;;13.17;10.07;;;13.40;88.10;;;;;;5037591;28;21132;-52
2022/06/21 02:06:27;;;;;;;12.97;9.63;;;13.40;88.40;;;;;;5040564;28;20495;-52
2022/06/21 02:08:56;;;;;;;10.27;9.37;;;13.30;88.80;;;;;;5037320;28;20483;-52
2022/06/21 02:11:39;;;;;;;9.97;8.93;;;13.30;89.00;;;;;;5033513;28;20480;-52
2022/06/21 02:14:30;;;;;;;12.33;11.13;;;13.30;89.30;;;;;;5018090;28;20491;-53
2022/06/21 02:17:04;;;;;;;10.00;8.20;;;13.30;89.80;;;;;;5017729;28;20484;-52
2022/06/21 02:19:38;;;;;;;21.40;10.07;;;13.30;89.80;;;;;;5034189;28;21055;-52
2022/06/21 02:22:05;;;;;;;11.57;10.33;;;13.30;90.10;;;;;;5038485;28;20482;-52
2022/06/21 02:24:32;;;;;;;9.67;8.77;;;13.40;89.30;;;;;;5036434;28;20501;-52
2022/06/21 02:27:01;;;;;;;13.37;9.40;;;13.40;89.50;;;;;;5036829;28;20499;-52
2022/06/21 02:29:30;;;;;;;12.60;8.90;;;13.40;89.40;;;;;;5039734;28;21031;-51
2022/06/21 02:31:58;;;;;;;9.67;8.60;;;13.20;89.70;;;;;;5038484;28;20549;-51
2022/06/21 02:34:31;;;;;;;13.20;9.50;;;13.20;90.00;;;;;;5037187;28;20496;-54
2022/06/21 02:37:00;;;;;;;10.80;9.67;;;13.10;90.20;;;;;;5037894;28;21047;-51
2022/06/21 02:39:30;;;;;;;14.60;9.80;;;13.10;90.30;;;;;;5038684;28;20961;-51
2022/06/21 02:42:01;;;;;;;9.93;9.00;;;13.10;90.30;;;;;;5039015;28;20490;-51
2022/06/21 02:44:33;;;;;;;10.07;9.07;;;13.10;90.50;;;;;;5038912;28;20494;-51
2022/06/21 02:47:05;;;;;;;12.07;10.13;;;13.20;90.50;;;;;;5031848;28;20496;-52
2022/06/21 02:49:34;;;;;;;11.20;10.03;;;;;;;;;;5037806;28;21237;-52
2022/06/21 02:52:04;;;;;;;11.83;10.43;;;13.20;90.20;;;;;;5037418;28;20482;-52
2022/06/21 02:54:39;;;;;;;12.50;10.50;;;13.30;90.00;;;;;;5034959;28;20789;-52
2022/06/21 02:57:10;;;;;;;13.50;9.97;;;13.40;90.00;;;;;;5035489;28;20990;-52
2022/06/21 02:59:41;;;;;;;10.10;9.20;;;13.40;90.30;;;;;;5041382;28;21065;-52
2022/06/21 03:02:11;;;;;;;11.23;10.10;;;13.40;90.20;;;;;;5036642;28;20505;-52
2022/06/21 03:04:41;;;;;;;11.57;10.50;;;13.40;90.00;;;;;;5040388;28;20474;-52
2022/06/21 03:07:11;;;;;;;13.70;10.40;;;13.40;90.10;;;;;;5030650;28;20482;-52
2022/06/21 03:09:38;;;;;;;11.53;10.30;;;13.40;89.90;;;;;;5035491;28;20486;-52
2022/06/21 03:12:07;;;;;;;11.77;10.57;;;13.40;90.10;;;;;;5032431;28;20532;-52
2022/06/21 03:14:38;;;;;;;13.90;10.40;;;13.40;90.00;;;;;;5034374;28;20499;-52
2022/06/21 03:17:08;;;;;;;11.50;9.57;;;13.40;90.10;;;;;;5030092;28;20486;-52
2022/06/21 03:19:38;;;;;;;13.13;11.07;;;13.40;90.10;;;;;;5034047;28;20502;-51
2022/06/21 03:22:14;;;;;;;11.23;10.13;;;13.30;90.20;;;;;;5035623;28;20490;-52
2022/06/21 03:24:41;;;;;;;11.60;10.40;;;13.30;90.40;;;;;;5037751;28;20495;-52
2022/06/21 03:27:16;;;;;;;11.60;10.37;;;13.20;90.30;;;;;;5036752;28;20491;-52
2022/06/21 03:29:45;;;;;;;13.30;11.90;;;13.20;90.40;;;;;;5037990;28;21039;-52
2022/06/21 03:32:12;;;;;;;11.80;10.53;;;13.20;90.70;;;;;;5044185;28;20484;-52
2022/06/21 03:34:38;;;;;;;12.80;10.30;;;13.30;90.50;;;;;;5034723;28;20517;-52
2022/06/21 03:37:06;;;;;;;14.00;9.83;;;13.30;90.60;;;;;;5046498;28;20490;-52
2022/06/21 03:42:20;;;;;;;16.20;10.23;;;13.30;90.70;;;;;;5029610;28;20498;-52
2022/06/21 03:44:55;;;;;;;14.07;12.10;;;13.30;90.70;;;;;;5036277;28;20494;-52
2022/06/21 03:47:26;;;;;;;13.67;10.23;;;13.40;90.70;;;;;;5025376;28;20544;-51
2022/06/21 03:49:59;;;;;;;12.83;11.53;;;13.40;90.80;;;;;;5026827;28;20984;-52
2022/06/21 03:52:45;;;;;;;11.70;9.90;;;13.30;91.00;;;;;;5028205;28;20761;-51
2022/06/21 03:55:33;;;;;;;11.27;10.07;;;13.30;91.10;;;;;;5032757;28;20976;-50
2022/06/21 03:58:07;;;;;;;12.47;10.70;;;13.40;90.90;;;;;;5011839;28;21015;-50
2022/06/21 04:00:43;;;;;;;14.83;10.27;;;13.50;91.00;;;;;;5036518;28;20482;-50
2022/06/21 04:03:17;;;;;;;14.67;12.30;;;13.50;91.20;;;;;;5025347;28;21028;-50
2022/06/21 04:05:49;;;;;;;14.03;12.53;;;13.50;91.10;;;;;;5034477;28;20888;-50
2022/06/21 04:08:18;;;;;;;12.57;11.27;;;;;;;;;;5028323;28;21339;-50
2022/06/21 04:10:51;;;;;;;14.30;12.73;;;13.70;91.20;;;;;;5043512;28;20495;-50
2022/06/21 04:13:24;;;;;;;14.07;10.10;;;13.70;91.50;;;;;;5034196;28;21006;-50
2022/06/21 04:16:00;;;;;;;14.40;12.10;;;13.70;91.30;;;;;;5044288;28;20486;-49
2022/06/21 04:18:31;;;;;;;13.23;11.77;;;13.80;91.30;;;;;;5032882;28;21417;-50
2022/06/21 04:21:03;;;;;;;15.10;11.53;;;13.80;91.40;;;;;;5006348;28;20961;-50
2022/06/21 04:23:37;;;;;;;13.10;10.50;;;13.80;91.60;;;;;;5035071;28;20510;-50
2022/06/21 04:26:09;;;;;;;13.77;10.53;;;13.90;91.80;;;;;;5019767;28;20478;-50
2022/06/21 04:28:43;;;;;;;14.03;11.40;;;14.10;91.70;;;;;;5017349;28;20492;-50
2022/06/21 04:31:16;;;;;;;13.03;11.23;;;14.10;91.60;;;;;;5018375;28;20740;-50
2022/06/21 04:33:48;;;;;;;19.13;12.17;;;14.20;91.60;;;;;;5018735;28;20499;-50
2022/06/21 04:36:19;;;;;;;12.60;9.83;;;14.20;91.50;;;;;;5028609;28;20495;-50
2022/06/21 04:38:51;;;;;;;12.83;11.07;;;14.30;91.60;;;;;;5039502;28;20491;-51
2022/06/21 04:41:23;;;;;;;11.27;10.07;;;14.40;91.60;;;;;;5035925;28;21152;-50
2022/06/21 04:43:57;;;;;;;12.10;10.90;;;14.40;91.40;;;;;;5037029;28;20486;-50
2022/06/21 04:46:30;;;;;;;14.07;10.20;;;14.50;91.30;;;;;;5038306;28;20476;-50
2022/06/21 04:49:03;;;;;;;15.63;10.40;;;14.60;91.30;;;;;;5037016;28;20467;-50
2022/06/21 04:51:34;;;;;;;10.73;9.73;;;14.80;91.60;;;;;;5003460;28;20480;-50
2022/06/21 04:54:04;;;;;;;11.43;10.27;;;14.80;91.30;;;;;;5008939;28;20825;-50
2022/06/21 04:56:39;;;;;;;11.83;10.17;;;14.90;91.30;;;;;;5027134;28;20475;-49
2022/06/21 04:59:12;;;;;;;11.70;9.73;;;15.10;91.10;;;;;;5022781;28;20481;-52
2022/06/21 05:01:40;;;;;;;14.13;10.97;;;15.20;91.00;;;;;;5040763;28;20490;-51
2022/06/21 05:04:12;;;;;;;21.30;9.93;;;15.30;90.90;;;;;;5041244;28;20996;-51
2022/06/21 05:06:39;;;;;;;10.87;9.87;;;15.40;90.90;;;;;;5040801;28;20527;-52
2022/06/21 05:09:06;;;;;;;10.17;8.90;;;15.50;91.10;;;;;;5041973;28;20475;-52
2022/06/21 05:11:34;;;;;;;9.83;8.83;;;15.60;90.80;;;;;;5041827;28;20990;-51
2022/06/21 05:14:01;;;;;;;9.17;8.37;;;15.60;90.50;;;;;;5033711;28;20580;-51
2022/06/21 05:16:31;;;;;;;10.03;8.40;;;15.70;90.60;;;;;;5042011;28;20511;-51
2022/06/21 05:19:06;;;;;;;14.47;8.67;;;15.70;90.40;;;;;;5039847;28;20480;-51
2022/06/21 05:21:36;;;;;;;13.53;7.60;;;15.90;90.50;;;;;;5009478;28;20526;-51
2022/06/21 05:24:04;;;;;;;18.20;8.37;;;16.00;90.30;;;;;;5033951;28;20878;-51
2022/06/21 05:26:37;;;;;;;9.83;8.70;;;16.00;90.50;;;;;;5035994;28;20487;-51
2022/06/21 05:29:10;;;;;;;10.70;8.23;;;16.20;90.00;;;;;;5017419;28;20671;-51
2022/06/21 05:31:41;;;;;;;10.80;7.83;;;16.40;90.00;;;;;;5011061;28;20484;-51
2022/06/21 05:34:17;;;;;;;10.97;7.83;;;16.50;88.70;;;;;;5018491;28;20489;-51
2022/06/21 05:36:56;;;;;;;9.53;8.43;;;16.50;88.90;;;;;;5027348;28;20476;-50
2022/06/21 05:39:30;;;;;;;7.23;6.63;;;16.70;88.30;;;;;;5018059;28;20512;-50
2022/06/21 05:42:01;;;;;;;7.80;6.33;;;16.70;88.00;;;;;;5018426;28;20530;-51
2022/06/21 05:44:35;;;;;;;7.57;6.77;;;16.80;88.40;;;;;;5019221;28;20498;-51
2022/06/21 05:47:08;;;;;;;7.10;6.40;;;16.90;89.50;;;;;;5012658;28;20490;-50
2022/06/21 05:49:37;;;;;;;6.40;5.80;;;16.90;88.10;;;;;;5007237;28;20910;-50
2022/06/21 05:52:11;;;;;;;6.93;6.20;;;17.00;88.60;;;;;;5020110;28;20969;-50
2022/06/21 05:54:42;;;;;;;7.43;6.33;;;17.00;88.10;;;;;;5007437;28;20484;-52
2022/06/21 05:57:14;;;;;;;6.47;5.97;;;17.20;88.20;;;;;;5018533;28;20825;-51
2022/06/21 05:59:41;;;;;;;6.87;5.50;;;17.30;88.80;;;;;;5021057;28;20476;-51
2022/06/21 06:02:15;;;;;;;7.23;5.93;;;17.50;87.40;;;;;;5019753;28;20484;-50
2022/06/21 06:04:48;;;;;;;7.43;6.67;;;17.40;86.40;;;;;;5008538;28;20945;-50
2022/06/21 06:07:25;;;;;;;9.10;5.53;;;17.40;86.60;;;;;;5017616;28;20472;-50
2022/06/21 06:09:56;;;;;;;7.63;5.80;;;17.40;86.40;;;;;;5050201;28;20476;-50
2022/06/21 06:12:26;;;;;;;7.80;5.80;;;17.40;86.00;;;;;;5036568;28;20499;-51
2022/06/21 06:14:59;;;;;;;6.30;5.70;;;17.40;87.80;;;;;;5038109;28;20483;-52
2022/06/21 06:17:32;;;;;;;11.83;5.93;;;17.40;88.50;;;;;;5038694;28;21004;-50
2022/06/21 06:20:05;;;;;;;6.37;5.77;;;17.30;88.60;;;;;;5040614;28;20494;-49
2022/06/21 06:22:37;;;;;;;7.10;5.13;;;17.20;89.30;;;;;;5039459;28;20502;-51
2022/06/21 06:25:24;;;;;;;8.40;4.70;;;16.80;90.10;;;;;;5040073;28;20506;-51
2022/06/21 06:28:00;;;;;;;8.80;6.30;;;16.60;90.80;;;;;;5022916;28;20518;-51
2022/06/21 06:30:33;;;;;;;6.27;5.77;;;16.40;91.60;;;;;;5037905;28;20498;-52
2022/06/21 06:33:07;;;;;;;6.40;5.80;;;16.40;91.60;;;;;;5037726;28;20559;-50
2022/06/21 06:35:35;;;;;;;9.50;6.07;;;16.20;91.70;;;;;;5039933;28;20484;-51
2022/06/21 06:38:02;;;;;;;6.27;5.67;;;16.20;92.00;;;;;;5038256;28;20490;-51
2022/06/21 06:40:32;;;;;;;6.50;6.00;;;16.30;92.10;;;;;;5040274;28;20503;-52
2022/06/21 06:43:03;;;;;;;10.03;6.80;;;16.40;92.80;;;;;;5039196;28;20506;-52
2022/06/21 06:45:34;;;;;;;6.30;5.33;;;16.50;92.50;;;;;;5039413;28;20488;-51
2022/06/21 06:48:04;;;;;;;14.33;6.47;;;16.70;92.50;;;;;;5038805;28;20488;-51
2022/06/21 06:50:38;;;;;;;5.90;5.30;;;16.90;92.60;;;;;;5039709;28;20507;-51
2022/06/21 06:53:09;;;;;;;6.70;6.20;;;16.90;92.70;;;;;;5038762;28;20540;-51
2022/06/21 06:55:40;;;;;;;7.60;6.57;;;17.10;92.40;;;;;;5038577;28;20483;-51
2022/06/21 06:58:15;;;;;;;7.50;5.87;;;17.30;93.30;;;;;;5038671;28;20487;-52
2022/06/21 07:00:46;;;;;;;7.77;6.03;;;17.60;94.00;;;;;;5004589;28;20468;-52
2022/06/21 07:03:17;;;;;;;6.00;4.63;;;17.90;92.80;;;;;;5025642;28;20483;-53
2022/06/21 07:05:51;;;;;;;6.10;5.50;;;18.20;92.30;;;;;;5037690;28;20475;-51
2022/06/21 07:08:25;;;;;;;7.50;5.97;;;18.60;91.90;;;;;;5033269;28;22280;-52
2022/06/21 07:10:56;;;;;;;7.83;4.83;;;18.60;91.50;;;;;;5017563;28;20483;-52
2022/06/21 07:13:23;;;;;;;6.50;4.83;;;18.90;90.80;;;;;;5035937;28;20476;-52
2022/06/21 07:15:52;;;;;;;7.73;4.50;;;19.10;90.00;;;;;;5038195;28;20468;-52
2022/06/21 07:18:28;;;;;;;4.93;4.50;;;19.20;90.20;;;;;;5041334;28;20504;-52
2022/06/21 07:20:57;;;;;;;4.30;3.90;;;19.20;88.30;;;;;;5034397;28;20484;-49
2022/06/21 07:23:26;;;;;;;9.40;4.30;;;19.30;88.20;;;;;;5041567;28;20498;-50
2022/06/21 07:25:58;;;;;;;8.40;4.43;;;19.50;89.40;;;;;;5034880;28;20479;-51
2022/06/21 07:28:31;;;;;;;6.27;4.33;;;19.50;87.60;;;;;;5038271;28;20494;-51
2022/06/21 07:31:02;;;;;;;7.87;4.20;;;19.60;87.00;;;;;;5032971;28;20498;-50
2022/06/21 07:33:32;;;;;;;7.70;4.63;;;19.80;88.20;;;;;;5038582;28;20823;-50
2022/06/21 07:36:04;;;;;;;4.37;3.83;;;20.10;87.50;;;;;;5038635;28;20483;-51
2022/06/21 07:38:38;;;;;;;5.43;2.97;;;20.50;84.80;;;;;;5037181;28;20479;-51
2022/06/21 07:41:13;;;;;;;4.13;3.60;;;20.50;80.90;;;;;;5038043;28;20487;-49
2022/06/21 07:43:44;;;;;;;10.00;3.80;;;20.70;81.90;;;;;;5036411;28;20487;-51
2022/06/21 07:46:16;;;;;;;4.60;3.87;;;20.80;80.70;;;;;;5035322;28;20722;-50
2022/06/21 07:48:49;;;;;;;7.20;4.17;;;21.20;82.10;;;;;;5036151;28;20508;-51
2022/06/21 07:51:20;;;;;;;4.20;3.80;;;21.60;81.40;;;;;;5038436;28;20478;-50
2022/06/21 07:53:51;;;;;;;9.20;3.40;;;21.80;81.50;;;;;;5032520;28;20482;-51
2022/06/21 07:56:23;;;;;;;10.90;3.37;;;22.30;79.60;;;;;;5011609;28;20472;-50
2022/06/21 07:58:54;;;;;;;3.80;3.40;;;22.40;80.10;;;;;;5036397;28;20972;-51
2022/06/21 08:07:13;;;;;;;3.17;2.67;;;22.80;75.10;;;;;;5026364;28;20506;-50
2022/06/21 08:09:46;;;;;;;3.43;3.10;;;22.90;76.30;;;;;;5042011;28;21139;-50
2022/06/21 08:12:14;;;;;;;7.03;3.43;;;23.10;75.10;;;;;;5043606;28;20769;-50
2022/06/21 08:14:41;;;;;;;4.40;2.70;;;23.40;73.70;;;;;;5041818;28;20510;-49
2022/06/21 08:17:14;;;;;;;4.50;3.03;;;23.50;73.30;;;;;;5041150;28;20494;-52
2022/06/21 08:19:46;;;;;;;3.17;2.50;;;23.40;72.00;;;;;;5037571;28;20494;-50
2022/06/21 08:22:18;;;;;;;3.70;2.90;;;23.40;74.80;;;;;;5047543;28;20826;-52
2022/06/21 08:24:53;;;;;;;8.03;3.30;;;23.50;73.70;;;;;;5041528;28;21058;-54
2022/06/21 08:27:26;;;;;;;4.20;1.93;;;23.50;73.50;;;;;;5032079;28;20485;-51
2022/06/21 08:29:56;;;;;;;3.00;2.67;;;23.40;73.60;;;;;;5032092;28;20482;-50
2022/06/21 08:32:32;;;;;;;4.70;3.07;;;23.30;74.40;;;;;;5042324;28;20487;-51
2022/06/21 08:35:03;;;;;;;3.27;2.90;;;23.50;72.10;;;;;;5041197;28;21091;-51
2022/06/21 08:37:39;;;;;;;4.23;2.97;;;23.60;75.00;;;;;;5039636;28;21007;-50
2022/06/21 08:40:24;;;;;;;3.30;2.30;;;23.80;71.30;;;;;;5041813;28;20483;-49
2022/06/21 08:43:21;;;;;;;4.33;3.10;;;24.00;73.00;;;;;;5029028;28;20468;-49
2022/06/21 08:46:13;;;;;;;6.00;2.60;;;24.10;73.40;;;;;;5006746;28;20476;-50
2022/06/21 08:48:56;;;;;;;3.63;3.33;;;24.40;73.40;;;;;;5017947;28;20498;-50
2022/06/21 08:52:05;;;;;;;6.40;3.20;;;25.10;73.20;;;;;;5021054;28;20602;-49
2022/06/21 08:54:44;;;;;;;3.60;3.10;;;25.10;70.70;;;;;;4998989;28;21083;-50
2022/06/21 08:57:16;;;;;;;3.90;2.20;;;25.20;70.90;;;;;;5028909;28;20554;-50
2022/06/21 08:59:58;;;;;;;4.43;3.40;;;25.10;71.00;;;;;;5039507;28;20514;-50
2022/06/21 09:02:36;;;;;;;7.80;3.37;;;25.20;71.80;;;;;;5028108;28;20478;-51
2022/06/21 09:05:17;;;;;;;3.70;3.40;;;25.30;71.90;;;;;;5020287;28;20495;-50
2022/06/21 09:08:00;;;;;;;7.07;3.63;;;25.70;70.80;;;;;;5012056;28;20510;-50
2022/06/21 09:10:38;;;;;;;3.80;3.07;;;25.80;70.00;;;;;;5014010;28;20535;-52
2022/06/21 09:13:20;;;;;;;4.17;2.57;;;26.00;70.50;;;;;;5031160;28;20483;-50
2022/06/21 09:15:56;;;;;;;3.93;3.63;;;26.00;69.50;;;;;;5040771;28;20887;-51
2022/06/21 09:18:42;;;;;;;4.87;3.70;;;26.10;73.40;;;;;;5027949;28;20507;-50
2022/06/21 09:21:13;;;;;;;4.50;3.23;;;26.00;70.10;;;;;;5041309;28;20479;-49
2022/06/21 09:23:56;;;;;;;3.50;3.20;;;26.20;70.60;;;;;;5040328;28;20495;-50
2022/06/21 09:26:32;;;;;;;13.43;4.07;;;26.20;70.40;;;;;;5038054;28;20597;-49
2022/06/21 09:29:12;;;;;;;4.17;3.33;;;26.50;71.30;;;;;;5014103;28;20529;-50
2022/06/21 09:31:49;;;;;;;3.40;3.10;;;26.80;70.50;;;;;;5037229;28;21000;-50
2022/06/21 09:34:23;;;;;;;3.80;3.33;;;26.80;70.90;;;;;;5040925;28;20486;-50
2022/06/21 09:37:01;;;;;;;5.37;4.13;;;27.00;70.30;;;;;;5037099;28;20538;-50
2022/06/21 09:39:33;;;;;;;7.73;3.30;;;27.00;71.20;;;;;;5028213;28;20484;-52
2022/06/21 09:42:07;;;;;;;3.37;3.07;;;27.10;68.70;;;;;;5018344;28;20483;-51
2022/06/21 09:44:41;;;;;;;4.40;3.27;;;27.30;69.90;;;;;;5040979;28;20487;-50
2022/06/21 09:47:17;;;;;;;3.83;3.30;;;27.40;68.20;;;;;;5037232;28;20484;-50
2022/06/21 09:49:50;;;;;;;5.23;3.73;;;27.60;70.60;;;;;;5039387;28;20475;-51
2022/06/21 09:52:30;;;;;;;5.53;4.40;;;27.50;68.50;;;;;;5040728;28;20491;-50
2022/06/21 09:55:08;;;;;;;8.00;3.80;;;27.10;69.20;;;;;;5023959;28;20476;-50
2022/06/21 09:57:44;;;;;;;5.43;3.40;;;27.20;69.50;;;;;;5018317;28;20686;-50
2022/06/21 10:00:18;;;;;;;4.20;3.80;;;27.20;70.60;;;;;;5034698;28;20482;-51
2022/06/21 10:02:57;;;;;;;5.17;4.60;;;27.30;69.90;;;;;;5037754;28;20583;-51
2022/06/21 10:05:31;;;;;;;17.90;4.10;;;27.30;68.60;;;;;;5022122;28;20841;-51
2022/06/21 10:08:14;;;;;;;4.90;3.50;;;27.50;71.50;;;;;;5024454;28;20487;-51
2022/06/21 10:10:55;;;;;;;7.90;4.70;;;27.80;71.00;;;;;;5030566;28;20495;-51
2022/06/21 10:13:54;;;;;;;6.30;4.00;;;28.00;72.10;;;;;;5039503;28;20476;-51
2022/06/21 10:16:39;;;;;;;4.67;3.93;;;28.10;68.60;;;;;;5039703;28;20467;-51
2022/06/21 10:19:16;;;;;;;5.07;4.67;;;28.00;67.90;;;;;;5037899;28;20551;-51
2022/06/21 10:22:00;;;;;;;4.80;4.40;;;28.20;70.00;;;;;;5039640;28;20491;-50
2022/06/21 10:24:50;;;;;;;5.37;4.23;;;28.20;70.80;;;;;;5034888;28;20475;-50
2022/06/21 10:27:43;;;;;;;5.13;4.70;;;28.40;70.30;;;;;;5037965;28;20490;-50
2022/06/21 10:30:26;;;;;;;8.00;4.27;;;28.60;72.40;;;;;;5028605;28;20579;-51
2022/06/21 10:33:19;;;;;;;6.47;4.20;;;28.80;70.00;;;;;;5033006;28;20942;-51
2022/06/21 10:35:57;;;;;;;6.17;4.70;;;29.00;70.20;;;;;;5020196;28;20459;-50
2022/06/21 10:38:41;;;;;;;7.30;4.50;;;29.10;69.30;;;;;;5015059;28;20472;-51
2022/06/21 10:41:26;;;;;;;8.83;5.80;;;29.10;71.50;;;;;;5036488;28;20472;-51
2022/06/21 10:44:08;;;;;;;5.80;5.20;;;28.80;69.40;;;;;;5038811;28;20472;-51
2022/06/21 10:46:39;;;;;;;7.20;4.90;;;28.90;73.30;;;;;;5035632;28;20488;-50
2022/06/21 10:49:35;;;;;;;6.07;5.13;;;28.70;69.00;;;;;;5032410;28;20510;-51
2022/06/21 10:52:33;;;;;;;5.37;4.93;;;28.10;69.30;;;;;;5017853;28;20471;-51
2022/06/21 10:55:36;;;;;;;5.87;5.30;;;27.70;69.30;;;;;;5025476;28;20454;-51
2022/06/21 10:58:14;;;;;;;7.63;5.23;;;27.80;72.00;;;;;;5042782;28;20825;-52
2022/06/21 11:04:02;;;;;;;6.50;5.50;;;27.00;70.80;;;;;;5003192;28;20522;-52
2022/06/21 11:06:40;;;;;;;7.60;4.87;;;27.20;72.30;;;;;;5032890;28;20487;-52
2022/06/21 11:09:12;;;;;;;5.63;5.20;;;27.30;73.60;;;;;;5029758;28;20848;-51
2022/06/21 11:11:48;;;;;;;6.43;5.83;;;27.50;73.20;;;;;;5012072;28;20476;-54
2022/06/21 11:14:24;;;;;;;6.80;5.80;;;27.80;76.10;;;;;;5028000;28;20589;-53
2022/06/21 11:17:08;;;;;;;8.27;5.30;;;28.30;72.40;;;;;;5027200;28;20476;-52
2022/06/21 11:19:45;;;;;;;5.47;4.97;;;28.40;73.90;;;;;;5041443;28;20995;-52
2022/06/21 11:22:34;;;;;;;6.43;5.07;;;28.30;69.30;;;;;;5026827;28;20486;-53
2022/06/21 11:25:11;;;;;;;6.83;5.70;;;28.30;70.90;;;;;;5027940;28;20470;-53
2022/06/21 11:27:47;;;;;;;5.90;5.40;;;28.20;72.10;;;;;;5016708;28;20468;-53
2022/06/21 11:30:19;;;;;;;6.23;5.63;;;28.30;72.30;;;;;;5026611;28;20892;-53
2022/06/21 11:32:55;;;;;;;6.33;5.73;;;28.40;72.40;;;;;;5036263;28;20512;-51
2022/06/21 11:35:36;;;;;;;6.20;5.60;;;28.70;72.00;;;;;;5035964;28;20853;-52
2022/06/21 11:38:21;;;;;;;8.20;7.43;;;28.90;74.60;;;;;;5030549;28;20458;-51
2022/06/21 11:40:57;;;;;;;10.67;5.50;;;29.10;69.80;;;;;;5022167;28;20472;-51
2022/06/21 11:43:43;;;;;;;6.40;5.90;;;29.10;70.40;;;;;;5038978;28;20863;-52
2022/06/21 11:46:18;;;;;;;15.77;5.10;;;29.20;70.90;;;;;;5034695;28;20483;-52
2022/06/21 11:49:19;;;;;;;7.63;5.07;;;29.30;71.50;;;;;;5019655;28;20801;-53
2022/06/21 11:52:21;;;;;;;5.23;4.83;;;29.50;71.10;;;;;;5016797;28;21035;-52
2022/06/21 11:54:55;;;;;;;9.30;5.87;;;29.40;68.90;;;;;;5025691;28;20479;-51
2022/06/21 11:57:30;;;;;;;5.03;4.63;;;29.50;68.90;;;;;;5023873;28;20510;-51
2022/06/21 12:00:05;;;;;;;6.10;4.60;;;29.40;68.20;;;;;;5042972;28;20563;-50
2022/06/21 12:02:40;;;;;;;5.93;5.43;;;29.30;69.70;;;;;;5031034;28;20871;-50
2022/06/21 12:05:21;;;;;;;5.10;4.80;;;29.30;69.10;;;;;;5036451;28;20968;-51
2022/06/21 12:07:55;;;;;;;8.97;5.17;;;29.10;70.40;;;;;;5013280;28;20491;-51
2022/06/21 12:10:32;;;;;;;4.93;4.53;;;29.10;70.20;;;;;;5045525;28;20579;-50
2022/06/21 12:13:05;;;;;;;5.97;5.47;;;28.90;71.40;;;;;;5027381;28;20483;-50
2022/06/21 12:15:44;;;;;;;5.47;4.87;;;28.80;71.50;;;;;;5045723;28;20494;-52
2022/06/21 12:18:15;;;;;;;5.83;5.20;;;28.70;69.60;;;;;;5035459;28;20446;-50
2022/06/21 12:20:46;;;;;;;6.17;4.83;;;28.60;70.10;;;;;;5041806;28;20456;-50
2022/06/21 12:23:19;;;;;;;6.00;5.53;;;28.60;70.90;;;;;;5038911;28;20672;-50
2022/06/21 12:25:47;;;;;;;5.90;5.40;;;28.60;70.20;;;;;;5033273;28;21043;-54
2022/06/21 12:28:16;;;;;;;6.10;5.57;;;28.70;70.40;;;;;;5016529;28;20967;-51
2022/06/21 12:30:43;;;;;;;4.93;4.53;;;28.80;70.50;;;;;;5037885;28;20486;-51
2022/06/21 12:33:13;;;;;;;5.83;5.33;;;29.20;74.20;;;;;;5037918;28;20490;-49
2022/06/21 12:35:46;;;;;;;5.67;4.83;;;29.30;71.90;;;;;;5037821;28;20476;-50
2022/06/21 12:38:19;;;;;;;7.30;5.70;;;29.60;70.00;;;;;;5036761;28;20475;-50
2022/06/21 12:40:53;;;;;;;5.90;5.43;;;29.60;69.20;;;;;;5005305;28;20468;-52
2022/06/21 12:43:34;;;;;;;5.47;5.07;;;29.80;68.90;;;;;;5020548;28;20470;-50
2022/06/21 12:46:06;;;;;;;10.97;6.20;;;29.70;65.40;;;;;;5038075;28;20490;-52
2022/06/21 12:48:46;;;;;;;6.83;5.43;;;29.80;70.30;;;;;;5034074;28;20475;-52
2022/06/21 12:51:20;;;;;;;6.20;5.70;;;30.10;68.20;;;;;;5037712;28;20471;-52
2022/06/21 12:54:12;;;;;;;6.40;5.80;;;30.30;68.80;;;;;;5038195;28;20450;-51
2022/06/21 12:57:02;;;;;;;8.53;6.83;;;30.40;68.90;;;;;;5021682;28;20456;-50
2022/06/21 12:59:49;;;;;;;7.47;5.67;;;30.60;67.20;;;;;;5018624;28;20533;-51
2022/06/21 13:02:32;;;;;;;5.50;4.80;;;30.80;67.00;;;;;;5036130;28;21241;-51
2022/06/21 13:05:20;;;;;;;4.77;4.47;;;30.80;67.20;;;;;;5040052;28;20479;-51
2022/06/21 13:08:12;;;;;;;5.30;4.80;;;30.90;67.60;;;;;;5004920;28;20842;-52
2022/06/21 13:10:49;;;;;;;5.43;4.60;;;31.10;66.90;;;;;;5028100;28;20455;-52
2022/06/21 13:13:37;;;;;;;9.03;5.47;;;31.10;67.50;;;;;;5014030;28;20443;-51
2022/06/21 13:16:14;;;;;;;5.20;4.70;;;31.10;65.80;;;;;;5019313;28;20492;-51
2022/06/21 13:19:02;;;;;;;7.40;5.47;;;31.10;65.50;;;;;;5018804;28;20969;-51
2022/06/21 13:21:41;;;;;;;6.83;5.93;;;31.10;66.00;;;;;;5026188;28;20480;-50
2022/06/21 13:24:22;;;;;;;6.73;5.03;;;31.10;65.90;;;;;;5029444;28;20462;-51
2022/06/21 13:27:18;;;;;;;8.60;5.23;;;31.30;66.20;;;;;;5018988;28;20945;-50
2022/06/21 13:30:02;;;;;;;6.03;5.53;;;31.40;67.70;;;;;;5018979;28;20480;-51
2022/06/21 13:32:33;;;;;;;6.73;6.13;;;31.00;62.80;;;;;;5027608;28;20575;-52